Time;durP1;ratioP1;P1;durP2;ratioP2;P2;SDS_P1;SDS_P2;PMS_P1;PMS_P2;Temp;Humidity;BMP_temperature;BMP_pressure;BME280_temperature;BME280_humidity;BME280_pressure;Samples;Min_cycle;Max_cycle;Signal;HPM_P1;HPM_P2
2024/03/02 00:04:28;;;;;;;10.25;7.88;;;6.90;99.90;;;;;;12428169;28;20049;-35
2024/03/02 00:10:39;;;;;;;8.55;7.50;;;6.80;99.90;;;;;;12432137;28;20054;-36
2024/03/02 00:16:42;;;;;;;10.38;8.25;;;6.80;99.90;;;;;;12434085;28;20093;-36
2024/03/02 00:22:44;;;;;;;9.43;7.85;;;6.70;99.90;;;;;;12412030;28;20425;-36
2024/03/02 00:28:50;;;;;;;9.32;7.90;;;6.70;99.90;;;;;;12419522;28;20123;-36
2024/03/02 00:34:52;;;;;;;10.77;8.48;;;6.60;99.90;;;;;;12429932;28;20072;-36
2024/03/02 00:40:54;;;;;;;11.30;8.25;;;6.60;99.90;;;;;;12427427;28;20128;-36
2024/03/02 00:46:56;;;;;;;9.48;8.13;;;6.60;99.90;;;;;;12429093;28;20120;-36
2024/03/02 00:52:58;;;;;;;9.82;7.78;;;6.60;99.90;;;;;;12425111;28;20481;-36
2024/03/02 00:58:59;;;;;;;9.40;7.38;;;6.60;99.90;;;;;;12428317;28;20434;-36
2024/03/02 01:05:01;;;;;;;9.60;7.50;;;6.60;99.90;;;;;;12425206;28;20046;-36
2024/03/02 01:11:03;;;;;;;11.10;7.40;;;6.70;99.90;;;;;;12427675;28;20048;-35
2024/03/02 01:17:05;;;;;;;9.65;7.40;;;6.70;99.90;;;;;;12434170;28;20486;-35
2024/03/02 01:23:07;;;;;;;8.88;7.28;;;6.70;99.90;;;;;;12428421;28;20088;-35
2024/03/02 01:29:09;;;;;;;8.07;7.28;;;6.70;99.90;;;;;;12445700;28;20268;-36
2024/03/02 01:35:11;;;;;;;9.27;7.38;;;6.70;99.90;;;;;;12439789;28;20049;-36
2024/03/02 01:41:13;;;;;;;9.65;7.90;;;6.70;99.90;;;;;;12435051;28;20088;-35
2024/03/02 01:47:14;;;;;;;10.38;8.20;;;6.80;99.90;;;;;;12416262;28;20077;-36
2024/03/02 01:53:16;;;;;;;10.13;8.55;;;6.70;99.90;;;;;;12433799;28;20081;-35
2024/03/02 01:59:18;;;;;;;11.18;8.27;;;6.60;99.90;;;;;;12432233;28;20137;-36
2024/03/02 02:05:20;;;;;;;10.75;8.20;;;6.60;99.90;;;;;;12421393;28;20077;-36
2024/03/02 02:11:22;;;;;;;10.50;8.18;;;6.50;99.90;;;;;;12441097;28;20176;-35
2024/03/02 02:17:24;;;;;;;12.05;8.35;;;6.50;99.90;;;;;;12437413;28;20053;-35
2024/03/02 02:23:26;;;;;;;9.75;8.05;;;6.40;99.90;;;;;;12431233;28;20057;-35
2024/03/02 02:29:28;;;;;;;9.90;7.63;;;6.40;99.90;;;;;;12436761;28;20144;-36
2024/03/02 02:35:30;;;;;;;12.10;8.27;;;6.40;99.90;;;;;;12423901;28;20188;-36
2024/03/02 02:41:31;;;;;;;12.93;8.80;;;6.30;99.90;;;;;;12437525;28;20132;-35
2024/03/02 02:47:35;;;;;;;13.07;8.30;;;6.30;99.90;;;;;;12437742;28;20517;-36
2024/03/02 02:53:40;;;;;;;13.43;9.20;;;6.20;99.90;;;;;;12436767;28;20169;-36
2024/03/02 02:59:42;;;;;;;12.00;8.45;;;6.20;99.90;;;;;;12435169;28;20430;-35
2024/03/02 03:05:43;;;;;;;11.57;8.82;;;6.30;99.90;;;;;;12431204;28;20080;-35
2024/03/02 03:11:45;;;;;;;12.15;8.50;;;6.30;99.90;;;;;;12435216;28;20532;-35
2024/03/02 03:17:47;;;;;;;12.65;8.90;;;6.30;99.90;;;;;;12430036;28;20050;-35
2024/03/02 03:23:49;;;;;;;10.10;8.23;;;6.40;99.90;;;;;;12436966;28;20418;-35
2024/03/02 03:29:52;;;;;;;11.65;8.57;;;6.30;99.90;;;;;;12431882;28;20045;-35
2024/03/02 03:35:54;;;;;;;11.18;8.60;;;6.40;99.90;;;;;;12430412;28;20050;-36
2024/03/02 03:41:55;;;;;;;13.18;8.68;;;6.50;99.90;;;;;;12438812;28;20049;-35
2024/03/02 03:47:57;;;;;;;13.80;9.05;;;6.50;99.90;;;;;;12436026;28;20192;-36
2024/03/02 03:53:59;;;;;;;12.57;9.68;;;6.50;99.90;;;;;;12437327;28;20129;-35
2024/03/02 04:00:01;;;;;;;11.90;9.50;;;6.50;99.90;;;;;;12428577;28;20054;-35
2024/03/02 04:06:03;;;;;;;11.63;9.15;;;6.60;99.90;;;;;;12425609;28;20129;-36
2024/03/02 04:12:05;;;;;;;12.13;9.48;;;6.60;99.90;;;;;;12413134;28;20046;-36
2024/03/02 04:18:07;;;;;;;12.57;9.02;;;6.50;99.90;;;;;;12427634;28;20077;-36
2024/03/02 04:24:09;;;;;;;14.02;10.68;;;6.60;99.90;;;;;;12425276;28;20057;-36
2024/03/02 04:30:11;;;;;;;14.43;10.30;;;6.40;99.90;;;;;;12405370;28;20426;-36
2024/03/02 04:36:13;;;;;;;13.40;9.63;;;6.40;99.90;;;;;;12429943;28;20192;-36
2024/03/02 04:42:15;;;;;;;13.02;10.05;;;6.40;99.90;;;;;;12416225;28;20080;-35
2024/03/02 04:48:17;;;;;;;16.00;10.13;;;6.40;99.90;;;;;;12429913;28;20050;-36
2024/03/02 04:54:19;;;;;;;13.15;9.95;;;6.40;99.90;;;;;;12403321;28;20188;-36
2024/03/02 05:00:22;;;;;;;12.98;9.23;;;6.40;99.90;;;;;;12435546;28;20054;-36
2024/03/02 05:06:24;;;;;;;12.57;9.93;;;6.40;99.90;;;;;;12440010;28;20054;-35
2024/03/02 05:12:49;;;;;;;16.10;11.00;;;6.40;99.90;;;;;;12415972;28;20046;-36
2024/03/02 05:18:51;;;;;;;14.15;10.50;;;6.40;99.90;;;;;;12437483;28;20073;-35
2024/03/02 05:24:53;;;;;;;16.00;10.85;;;6.40;99.90;;;;;;12442546;28;20499;-35
2024/03/02 05:30:54;;;;;;;14.68;10.68;;;6.40;99.90;;;;;;12437594;28;20452;-36
2024/03/02 05:36:57;;;;;;;17.67;11.27;;;6.40;99.90;;;;;;12440442;28;20502;-36
2024/03/02 05:42:59;;;;;;;17.33;10.88;;;6.30;99.90;;;;;;12432005;28;20125;-35
2024/03/02 05:49:01;;;;;;;15.60;11.18;;;6.40;99.90;;;;;;12442827;28;20077;-35
2024/03/02 05:55:04;;;;;;;15.45;11.00;;;6.30;99.90;;;;;;12436974;28;20042;-35
2024/03/02 06:01:07;;;;;;;15.52;11.57;;;6.30;99.90;;;;;;12426760;28;20050;-36
2024/03/02 06:07:09;;;;;;;16.25;11.13;;;6.30;99.90;;;;;;12434774;28;20050;-35
2024/03/02 06:13:10;;;;;;;18.08;11.85;;;6.30;99.90;;;;;;12436157;28;20088;-35
2024/03/02 06:19:12;;;;;;;15.95;11.68;;;6.30;99.90;;;;;;12436978;28;20140;-35
2024/03/02 06:25:14;;;;;;;17.98;12.18;;;6.40;99.90;;;;;;12420182;28;20132;-36
2024/03/02 06:31:16;;;;;;;18.98;12.50;;;6.40;99.90;;;;;;12435941;28;20545;-34
2024/03/02 06:37:17;;;;;;;18.27;13.10;;;6.40;99.90;;;;;;12435622;28;20112;-36
2024/03/02 06:43:23;;;;;;;19.77;14.55;;;6.40;99.90;;;;;;12435231;28;20494;-36
2024/03/02 06:49:24;;;;;;;18.98;12.98;;;6.40;99.90;;;;;;12437073;28;20060;-36
2024/03/02 06:55:26;;;;;;;19.60;13.13;;;6.40;99.90;;;;;;12438355;28;20394;-36
2024/03/02 07:01:28;;;;;;;19.05;13.23;;;6.50;99.90;;;;;;12433854;28;20073;-36
2024/03/02 07:07:30;;;;;;;21.40;14.00;;;6.60;99.90;;;;;;12427887;28;20391;-35
2024/03/02 07:13:32;;;;;;;18.05;13.98;;;6.70;99.90;;;;;;12432132;28;20073;-35
2024/03/02 07:19:34;;;;;;;17.70;13.77;;;6.80;99.90;;;;;;12429625;28;20053;-36
2024/03/02 07:25:36;;;;;;;21.08;15.07;;;6.80;99.90;;;;;;12434531;28;20061;-36
2024/03/02 07:31:40;;;;;;;18.80;14.38;;;6.80;99.90;;;;;;12429036;28;20115;-36
2024/03/02 07:37:42;;;;;;;20.23;14.65;;;6.80;99.90;;;;;;12437362;28;20116;-35
2024/03/02 07:43:44;;;;;;;19.73;14.35;;;6.80;99.90;;;;;;12434335;28;20084;-36
2024/03/02 07:49:46;;;;;;;21.05;14.65;;;6.90;99.90;;;;;;12438519;28;20660;-35
2024/03/02 07:55:48;;;;;;;20.30;15.23;;;6.90;99.90;;;;;;12420966;28;20140;-35
2024/03/02 08:01:50;;;;;;;20.80;14.70;;;7.00;99.90;;;;;;12421625;28;20057;-36
2024/03/02 08:07:53;;;;;;;19.58;15.45;;;7.00;99.90;;;;;;12429524;28;20061;-36
2024/03/02 08:13:55;;;;;;;19.13;14.73;;;7.20;99.90;;;;;;12428222;28;20042;-36
2024/03/02 08:19:57;;;;;;;18.75;15.93;;;7.50;99.90;;;;;;12430554;28;20065;-36
2024/03/02 08:25:59;;;;;;;19.92;16.52;;;7.80;99.90;;;;;;12431650;28;20084;-36
2024/03/02 08:32:01;;;;;;;19.30;16.42;;;8.00;99.90;;;;;;12429593;28;20410;-36
2024/03/02 08:38:04;;;;;;;17.40;15.35;;;8.00;99.90;;;;;;12433864;28;20089;-36
2024/03/02 08:44:06;;;;;;;18.58;16.10;;;8.10;99.90;;;;;;12439274;28;20058;-36
2024/03/02 08:50:08;;;;;;;17.35;15.45;;;8.20;99.90;;;;;;12419782;28;20522;-36
2024/03/02 08:56:11;;;;;;;16.10;14.40;;;8.40;99.90;;;;;;12439904;28;20054;-36
2024/03/02 09:02:13;;;;;;;19.80;17.70;;;8.80;99.90;;;;;;12437095;28;20132;-36
2024/03/02 09:08:15;;;;;;;19.08;17.17;;;9.10;99.90;;;;;;12433554;28;20185;-36
2024/03/02 09:14:17;;;;;;;19.17;17.25;;;9.20;99.90;;;;;;12439176;28;20092;-36
2024/03/02 09:20:18;;;;;;;15.63;14.10;;;9.50;99.90;;;;;;12437448;28;20073;-36
2024/03/02 09:26:20;;;;;;;18.33;16.70;;;9.90;99.90;;;;;;12438962;28;20132;-36
2024/03/02 09:32:23;;;;;;;19.15;17.17;;;10.10;99.90;;;;;;12423965;28;20042;-36
2024/03/02 09:38:25;;;;;;;18.17;16.58;;;9.90;99.90;;;;;;12415820;28;20144;-36
2024/03/02 09:44:27;;;;;;;18.73;16.90;;;10.00;99.90;;;;;;12432218;28;20550;-36
2024/03/02 09:50:29;;;;;;;19.45;17.65;;;10.10;99.90;;;;;;12433808;28;20128;-36
2024/03/02 09:56:30;;;;;;;17.65;15.98;;;10.00;99.90;;;;;;12429790;28;20052;-36
2024/03/02 10:02:33;;;;;;;16.08;14.60;;;10.00;99.90;;;;;;12434642;28;20077;-36
2024/03/02 10:08:48;;;;;;;17.65;16.08;;;10.20;99.90;;;;;;12433453;28;20049;-36
2024/03/02 10:15:03;;;;;;;17.00;15.32;;;10.50;99.90;;;;;;12435965;28;20084;-36
2024/03/02 10:21:14;;;;;;;18.40;16.70;;;10.60;99.90;;;;;;12434909;28;21667;-36
2024/03/02 10:27:16;;;;;;;16.10;14.60;;;10.70;99.90;;;;;;12430017;28;20490;-36
2024/03/02 10:33:17;;;;;;;17.77;16.08;;;10.80;99.90;;;;;;12433773;28;20140;-36
2024/03/02 10:39:19;;;;;;;17.95;16.35;;;11.00;99.90;;;;;;12436558;28;20056;-36
2024/03/02 10:45:24;;;;;;;18.83;16.83;;;10.90;99.90;;;;;;12432909;28;20054;-36
2024/03/02 10:51:28;;;;;;;16.92;15.40;;;11.10;99.90;;;;;;12434423;28;20462;-35
2024/03/02 10:57:36;;;;;;;15.65;14.15;;;11.40;99.90;;;;;;12433580;28;20046;-36
2024/03/02 11:03:40;;;;;;;17.10;15.50;;;11.60;99.90;;;;;;12436436;28;20088;-36
2024/03/02 11:09:51;;;;;;;17.67;16.07;;;11.50;99.90;;;;;;12436320;28;20049;-36
2024/03/02 11:15:59;;;;;;;17.35;15.85;;;11.50;99.90;;;;;;12433676;28;20038;-36
2024/03/02 11:22:03;;;;;;;17.65;16.15;;;11.60;99.90;;;;;;12433366;28;20082;-35
2024/03/02 11:28:10;;;;;;;16.70;15.25;;;11.70;99.90;;;;;;12435182;28;20084;-36
2024/03/02 11:34:33;;;;;;;18.35;16.65;;;11.70;99.90;;;;;;12425423;28;20072;-36
2024/03/02 11:40:35;;;;;;;15.43;14.07;;;11.90;99.90;;;;;;12430652;28;20045;-36
2024/03/02 11:46:39;;;;;;;16.80;15.23;;;12.10;99.90;;;;;;12436425;28;20046;-36
2024/03/02 11:52:43;;;;;;;15.32;14.00;;;12.10;99.90;;;;;;12432811;28;20541;-36
2024/03/02 11:58:45;;;;;;;15.47;13.97;;;12.20;99.90;;;;;;12429989;28;20061;-36
2024/03/02 12:04:48;;;;;;;13.60;12.50;;;12.20;99.90;;;;;;12401935;28;20296;-36
2024/03/02 12:11:00;;;;;;;13.07;11.90;;;12.50;99.90;;;;;;12415622;28;20053;-36
2024/03/02 12:17:05;;;;;;;13.70;12.00;;;12.80;99.90;;;;;;12434125;28;20129;-36
2024/03/02 12:23:07;;;;;;;14.07;12.87;;;12.80;99.90;;;;;;12430001;28;20328;-36
2024/03/02 12:29:10;;;;;;;14.13;12.95;;;12.80;99.90;;;;;;12429992;28;20065;-36
2024/03/02 12:35:15;;;;;;;12.40;11.32;;;12.90;99.90;;;;;;12421633;28;20069;-36
2024/03/02 12:41:19;;;;;;;13.57;12.38;;;12.90;99.90;;;;;;12433880;28;20050;-36
2024/03/02 12:47:21;;;;;;;14.32;13.13;;;13.20;99.90;;;;;;12431595;28;20058;-35
2024/03/02 12:53:24;;;;;;;14.13;13.02;;;13.00;99.90;;;;;;12423554;28;20084;-36
2024/03/02 12:59:26;;;;;;;12.18;11.15;;;13.00;99.90;;;;;;12433050;28;20053;-35
2024/03/02 13:05:32;;;;;;;13.70;12.70;;;12.90;99.90;;;;;;12426475;28;20045;-36
2024/03/02 13:11:34;;;;;;;11.25;10.25;;;13.10;99.90;;;;;;12432996;28;20050;-36
2024/03/02 13:17:36;;;;;;;11.50;9.90;;;13.10;99.90;;;;;;12427217;28;20145;-36
2024/03/02 13:23:39;;;;;;;10.48;9.60;;;13.30;99.90;;;;;;12431976;28;20387;-36
2024/03/02 13:29:42;;;;;;;9.50;8.70;;;13.40;99.90;;;;;;12439502;28;20061;-36
2024/03/02 13:35:44;;;;;;;8.50;7.80;;;13.60;99.90;;;;;;12436792;28;20049;-36
2024/03/02 13:41:52;;;;;;;7.75;7.15;;;13.50;99.90;;;;;;12434170;28;20128;-36
2024/03/02 13:47:54;;;;;;;9.45;8.57;;;13.50;99.90;;;;;;12417169;28;20498;-36
2024/03/02 13:53:56;;;;;;;9.23;8.52;;;13.50;99.90;;;;;;12424449;28;20394;-35
2024/03/02 13:59:58;;;;;;;9.95;9.15;;;13.50;99.90;;;;;;12422446;28;20077;-36
2024/03/02 14:06:00;;;;;;;8.57;6.93;;;13.60;99.90;;;;;;12421251;28;20517;-36
2024/03/02 14:12:02;;;;;;;8.15;7.45;;;13.50;99.90;;;;;;12425961;28;20057;-37
2024/03/02 14:18:05;;;;;;;8.55;7.85;;;13.50;99.90;;;;;;12423457;28;20096;-36
2024/03/02 14:24:07;;;;;;;8.20;7.40;;;13.50;99.90;;;;;;12402079;28;20489;-36
2024/03/02 14:30:10;;;;;;;7.30;6.70;;;13.50;99.90;;;;;;12411538;28;20050;-35
2024/03/02 14:36:11;;;;;;;6.63;6.03;;;13.50;99.90;;;;;;12402427;28;20144;-36
2024/03/02 14:42:13;;;;;;;4.38;3.97;;;13.60;99.90;;;;;;12409397;28;20422;-36
2024/03/02 14:48:15;;;;;;;4.70;4.30;;;13.50;99.90;;;;;;12406735;28;20077;-36
2024/03/02 14:54:17;;;;;;;4.40;4.00;;;13.40;99.90;;;;;;12409524;28;20146;-36
2024/03/02 15:00:19;;;;;;;5.78;5.28;;;13.30;99.90;;;;;;12415429;28;20085;-36
2024/03/02 15:06:21;;;;;;;6.38;5.78;;;13.30;99.90;;;;;;12436158;28;20054;-36
2024/03/02 15:12:23;;;;;;;4.88;4.47;;;13.30;99.90;;;;;;12426855;28;20133;-35
2024/03/02 15:18:25;;;;;;;4.40;4.00;;;13.30;99.90;;;;;;12430627;28;20379;-36
2024/03/02 15:24:27;;;;;;;4.57;4.13;;;13.20;99.90;;;;;;12436962;28;20179;-36
2024/03/02 15:30:29;;;;;;;4.78;4.38;;;13.10;99.90;;;;;;12434754;28;20460;-35
2024/03/02 15:36:31;;;;;;;5.63;5.13;;;13.20;99.90;;;;;;12438590;28;20518;-36
2024/03/02 15:42:34;;;;;;;5.53;5.03;;;13.20;99.90;;;;;;12423286;28;20050;-36
2024/03/02 15:48:36;;;;;;;5.78;5.28;;;13.20;99.90;;;;;;12417470;28;20072;-35
2024/03/02 15:54:38;;;;;;;5.38;4.88;;;13.00;99.90;;;;;;12413568;28;20061;-36
2024/03/02 16:00:40;;;;;;;5.53;5.13;;;12.90;99.90;;;;;;12412771;28;20042;-35
2024/03/02 16:06:42;;;;;;;4.80;4.40;;;12.80;99.90;;;;;;12415215;28;20054;-36
2024/03/02 16:12:44;;;;;;;5.05;4.65;;;12.80;99.90;;;;;;12418553;28;20095;-36
2024/03/02 16:18:46;;;;;;;6.35;5.68;;;12.60;99.90;;;;;;12420630;28;20530;-36
2024/03/02 16:24:48;;;;;;;5.38;4.88;;;12.40;99.90;;;;;;12415560;28;20046;-35
2024/03/02 16:30:50;;;;;;;10.80;8.07;;;12.30;99.90;;;;;;12419511;28;20081;-36
2024/03/02 16:36:52;;;;;;;6.43;5.82;;;12.10;99.90;;;;;;12427774;28;20068;-36
2024/03/02 16:42:54;;;;;;;5.80;5.30;;;12.00;99.90;;;;;;12420744;28;20049;-35
2024/03/02 16:48:56;;;;;;;5.47;4.97;;;11.90;99.90;;;;;;12423730;28;20053;-35
2024/03/02 16:54:58;;;;;;;13.63;9.25;;;11.90;99.90;;;;;;12432193;28;20057;-35
2024/03/02 17:01:05;;;;;;;7.95;7.15;;;11.70;99.90;;;;;;12440988;28;20045;-36
2024/03/02 17:07:07;;;;;;;6.68;6.07;;;11.60;99.90;;;;;;12433806;28;20046;-36
2024/03/02 17:13:09;;;;;;;7.38;6.88;;;11.50;99.90;;;;;;12443820;28;20112;-35
2024/03/02 17:19:11;;;;;;;6.88;6.28;;;11.20;99.90;;;;;;12438730;28;20052;-36
2024/03/02 17:25:13;;;;;;;6.95;6.35;;;11.10;99.90;;;;;;12444117;28;20089;-36
2024/03/02 17:31:15;;;;;;;7.72;7.03;;;11.00;99.90;;;;;;12439974;28;20064;-36
2024/03/02 17:37:17;;;;;;;7.93;7.20;;;10.80;99.90;;;;;;12439700;28;20046;-36
2024/03/02 17:43:19;;;;;;;9.35;8.45;;;10.80;99.90;;;;;;12436991;28;20387;-36
2024/03/02 17:49:20;;;;;;;8.70;7.80;;;10.50;99.90;;;;;;12418573;28;20553;-36
2024/03/02 17:55:22;;;;;;;10.07;9.07;;;10.20;99.90;;;;;;12415909;28;20056;-36
2024/03/02 18:01:24;;;;;;;8.98;8.18;;;10.00;99.90;;;;;;12427800;28;20050;-35
2024/03/02 18:07:26;;;;;;;8.80;7.90;;;9.70;99.90;;;;;;12399478;28;20100;-36
2024/03/02 18:13:29;;;;;;;8.93;8.00;;;9.70;99.90;;;;;;12441574;28;20137;-34
2024/03/02 18:19:31;;;;;;;8.18;7.28;;;9.70;99.90;;;;;;12427475;28;20042;-36
2024/03/02 18:25:33;;;;;;;10.73;9.02;;;9.70;99.90;;;;;;12423936;28;20081;-36
2024/03/02 18:31:35;;;;;;;8.88;7.85;;;9.60;99.90;;;;;;12424789;28;20053;-34
2024/03/02 18:37:37;;;;;;;10.10;9.10;;;9.30;99.90;;;;;;12403193;28;20104;-36
2024/03/02 18:43:39;;;;;;;10.25;7.97;;;9.30;99.90;;;;;;12425754;28;20517;-36
2024/03/02 18:49:47;;;;;;;9.00;8.10;;;9.20;99.90;;;;;;12433090;28;20144;-34
2024/03/02 18:55:49;;;;;;;23.40;16.63;;;9.10;99.90;;;;;;12435814;28;20046;-36
2024/03/02 19:01:51;;;;;;;8.48;7.68;;;8.90;99.90;;;;;;12435316;28;20053;-36
2024/03/02 19:07:53;;;;;;;7.78;6.97;;;9.00;99.90;;;;;;12438888;28;20061;-36
2024/03/02 19:13:56;;;;;;;8.05;7.25;;;8.90;99.90;;;;;;12433307;28;20414;-36
2024/03/02 19:19:58;;;;;;;8.20;7.23;;;8.90;99.90;;;;;;12436440;28;20045;-36
2024/03/02 19:26:01;;;;;;;9.10;7.63;;;9.00;99.90;;;;;;12418436;28;20069;-36
2024/03/02 19:32:03;;;;;;;9.57;7.45;;;8.90;99.90;;;;;;12434529;28;20247;-36
2024/03/02 19:38:13;;;;;;;13.27;7.53;;;8.90;99.90;;;;;;12427058;28;20095;-36
2024/03/02 19:44:15;;;;;;;9.23;7.28;;;9.00;99.90;;;;;;12432206;28;20057;-36
2024/03/02 19:50:17;;;;;;;12.68;8.45;;;9.10;99.90;;;;;;12414583;28;20085;-36
2024/03/02 19:56:20;;;;;;;11.27;8.65;;;9.30;99.90;;;;;;12417032;28;20050;-36
2024/03/02 20:02:26;;;;;;;11.77;8.85;;;9.20;99.90;;;;;;12416633;28;20422;-36
2024/03/02 20:08:29;;;;;;;12.73;8.77;;;9.20;99.90;;;;;;12423503;28;20050;-36
2024/03/02 20:14:31;;;;;;;13.00;9.55;;;9.10;99.90;;;;;;12410689;28;20176;-35
2024/03/02 20:20:32;;;;;;;13.02;9.50;;;9.20;99.90;;;;;;12424998;28;20095;-36
2024/03/02 20:26:35;;;;;;;10.63;8.15;;;9.40;99.90;;;;;;12419414;28;20506;-35
2024/03/02 20:32:38;;;;;;;9.95;8.38;;;9.70;99.90;;;;;;12435060;28;20180;-36
2024/03/02 20:38:40;;;;;;;13.40;9.15;;;9.70;99.90;;;;;;12427298;28;20054;-36
2024/03/02 20:44:42;;;;;;;12.07;8.80;;;9.70;99.90;;;;;;12424015;28;20084;-36
2024/03/02 20:50:44;;;;;;;11.52;9.10;;;9.60;99.90;;;;;;12440297;28;20120;-35
2024/03/02 20:56:51;;;;;;;9.45;7.75;;;9.50;99.90;;;;;;12427926;28;20149;-35
2024/03/02 21:02:53;;;;;;;10.20;8.43;;;9.50;99.90;;;;;;12440559;28;20057;-36
2024/03/02 21:08:55;;;;;;;11.60;8.98;;;9.40;99.90;;;;;;12441808;28;20785;-36
2024/03/02 21:14:57;;;;;;;9.88;8.50;;;9.40;99.90;;;;;;12437566;28;20128;-36
2024/03/02 21:20:59;;;;;;;11.07;8.52;;;9.20;99.90;;;;;;12443945;28;20046;-36
2024/03/02 21:27:01;;;;;;;9.15;7.95;;;9.20;99.90;;;;;;12438875;28;20461;-36
2024/03/02 21:33:06;;;;;;;9.23;7.88;;;9.30;99.90;;;;;;12441966;28;20136;-35
2024/03/02 21:39:08;;;;;;;11.27;9.23;;;9.50;99.90;;;;;;12435165;28;20084;-36
2024/03/02 21:45:10;;;;;;;11.00;8.00;;;9.60;99.90;;;;;;12442023;28;20442;-36
2024/03/02 21:51:15;;;;;;;9.30;8.15;;;9.60;99.90;;;;;;12418680;28;20474;-36
2024/03/02 21:57:20;;;;;;;10.68;8.45;;;9.60;99.90;;;;;;12422893;28;20514;-35
2024/03/02 22:03:22;;;;;;;8.57;7.68;;;9.60;99.90;;;;;;12431179;28;20223;-36
2024/03/02 22:09:24;;;;;;;9.30;8.15;;;9.70;99.90;;;;;;12407037;28;20057;-36
2024/03/02 22:15:26;;;;;;;11.07;8.77;;;9.60;99.90;;;;;;12426313;28;20050;-36
2024/03/02 22:21:28;;;;;;;8.48;7.60;;;9.60;99.90;;;;;;12414324;28;20073;-34
2024/03/02 22:27:30;;;;;;;9.00;7.75;;;9.50;99.90;;;;;;12423696;28;20049;-35
2024/03/02 22:33:32;;;;;;;9.15;8.18;;;9.50;99.90;;;;;;12425107;28;20068;-36
2024/03/02 22:39:34;;;;;;;9.30;7.88;;;9.40;99.90;;;;;;12426649;28;20052;-36
2024/03/02 22:45:36;;;;;;;10.82;7.85;;;9.30;99.90;;;;;;12425357;28;20054;-36
2024/03/02 22:51:38;;;;;;;12.07;8.48;;;9.20;99.90;;;;;;12441075;28;20411;-36
2024/03/02 22:57:40;;;;;;;9.50;7.18;;;9.00;99.90;;;;;;12437731;28;20050;-36
2024/03/02 23:03:42;;;;;;;8.57;7.50;;;9.30;99.90;;;;;;12434253;28;20172;-36
2024/03/02 23:09:45;;;;;;;10.70;7.65;;;9.30;99.90;;;;;;12436838;28;20053;-36
2024/03/02 23:15:47;;;;;;;11.82;7.13;;;9.30;99.90;;;;;;12438598;28;20046;-36
2024/03/02 23:21:49;;;;;;;9.20;7.25;;;9.60;99.90;;;;;;12437887;28;20061;-36
2024/03/02 23:27:51;;;;;;;9.30;7.57;;;9.70;99.90;;;;;;12436024;28;20069;-36
2024/03/02 23:33:55;;;;;;;10.15;8.15;;;9.50;99.90;;;;;;12432007;28;20056;-36
2024/03/02 23:46:04;;;;;;;10.23;7.28;;;8.70;99.90;;;;;;12436034;28;20107;-35
2024/03/02 23:52:06;;;;;;;10.30;7.90;;;8.50;99.90;;;;;;12416161;28;20152;-35
2024/03/02 23:58:08;;;;;;;10.80;8.02;;;8.30;99.90;;;;;;12414577;28;20042;-35
